Detall de PIREP

Printer-friendly versionPDF version

[2014/01/11 11:59:00]
Flight IATA:CT2212
Pilot Number:012
Company ICAO:CAT
Aircraft Type:F100/A
PAX:103
Aircraft Registration:PFJ
Departing Airport: LFMP
Destination Airport: LFST
Alternate Airport:LSZH
Online: VATSIM
Route:SIJAN A27 MOU G21 EPL
Flight Level:F180
No Slew and time accel
No pause
Crash detect
Detect pilot in Cockpit between each 30 and 45 minutes
11:59 Zero fuel Weight: 80349 Lbs, Fuel Weight: 13800 Lbs
11:59 VATSIM:LFMP 111130Z 06003KT 360V100 9999 FEW033 BKN170 BKN260 14/08 Q1021 NOSIG
11:59 VATSIM:LFST 111130Z AUTO VRB02KT 7000 BKN034/// OVC070/// ///TCU 04/04 Q1019
12:00 VOICE CATALONIAN
12:03 Parking Brakes off
12:06 Take-off
12:06 Take off Weight: 93740 Lbs
12:06 Wind: 041º @ 003 Knots Heading: 329º
12:06 POS N42º 44´ 58´´ E002º 51´ 55´´
12:06 Gear Up: 148 Knots
12:06 Flaps:2 at 148 Knots
12:07 Flaps:1 at 179 Knots
12:07 Flaps:0 at 185 Knots
12:13 TOC
12:13 Fuel Weight: 12132 Lb
12:21 Wind:239º@025 Knots Heading: 003º Ground Speed: 422 Knots Altitude 18218 ft
12:36 Wind:270º@019 Knots Heading: 017º Ground Speed: 407 Knots Altitude 18198 ft
12:51 Wind:243º@036 Knots Heading: 040º Ground Speed: 423 Knots Altitude 18202 ft
13:05 TOD
13:05 Fuel Weight: 7255 Lb
13:06 Wind:252º@043 Knots Heading: 080º Ground Speed: 411 Knots Altitude 16062 ft
13:12 Flaps:1 at 229 Knots
13:13 Flaps:2 at 235 Knots
13:13 Gear Down: 235 Knots
13:13 Flaps:3 at 208 Knots
13:14 Flaps:4 at 195 Knots
13:15 TouchDown:Rate -367 ft/min Speed: 161 Knots
13:15 VATSIM:LFST 111300Z AUTO 14004KT 100V160 6000 FEW024 BKN060 BKN074 05/05 Q1018
13:15 Land
13:15 Wind:294º@002 Knots
13:15 Heading: 056º
13:15 Flight Duration: 01:09
13:15 Landing Weight: 87228 Lbs
13:15 POS N48º 32´ 37´´ E007º 38´ 14´´
13:17 Parking brakes on
13:17 Block to Block Duration: 01:14
13:17 Final Fuel: 6796 Lbls
13:17 Spent Fuel: 7003 Lbls
13:17 Flight Length: 448 NM
13:17 TOD Land Length: 51 NM

Exportar CSV

Powered by Drupal - Modified by Danger4k